createdAt,value
2022-11-15T00:07:01.792Z,9.04
2022-11-15T00:25:43.275Z,9.11
2022-11-15T00:34:11.540Z,9.58
2022-11-15T00:43:09.266Z,9.19
2022-11-15T00:51:12.237Z,9.75
2022-11-15T01:00:29.910Z,9.32
2022-11-15T01:08:27.416Z,9.93
2022-11-15T01:12:17.171Z,9.41
2022-11-15T01:16:52.354Z,9.52
2022-11-15T01:20:41.895Z,9.74
2022-11-15T01:24:02.843Z,9.95
2022-11-15T01:27:46.302Z,8.93
2022-11-15T01:31:38.502Z,9.71
2022-11-15T01:40:47.484Z,9.99
2022-11-15T01:44:38.481Z,9.87
2022-11-15T01:48:28.004Z,9.53
2022-11-15T01:51:49.170Z,10.17
2022-11-15T01:55:20.901Z,10.12
2022-11-15T01:59:00.430Z,9.92
2022-11-15T02:06:49.663Z,10.36
2022-11-15T02:20:49.543Z,9.72
2022-11-15T02:24:32.848Z,9.73
2022-11-15T02:28:17.032Z,9.69
2022-11-15T02:32:12.536Z,10.43
2022-11-15T02:35:59.896Z,10.42
2022-11-15T02:39:52.381Z,10.05
2022-11-15T02:43:42.021Z,10.01
2022-11-15T02:47:35.762Z,10.14
2022-11-15T02:51:04.193Z,10.42
2022-11-15T02:54:52.869Z,10.46
2022-11-15T02:58:37.285Z,10.19
2022-11-15T03:02:17.497Z,10.40
2022-11-15T03:06:14.934Z,10.11
2022-11-15T03:10:19.166Z,10.60
2022-11-15T03:14:38.015Z,10.08
2022-11-15T03:18:27.103Z,10.29
2022-11-15T03:22:22.851Z,10.13
2022-11-15T03:25:58.745Z,10.13
2022-11-15T03:29:48.410Z,10.54
2022-11-15T03:37:08.069Z,10.11
2022-11-15T03:40:30.991Z,10.49
2022-11-15T03:43:58.818Z,10.17
2022-11-15T03:47:22.880Z,10.06
2022-11-15T03:55:32.358Z,10.62
2022-11-15T03:59:14.979Z,10.27
2022-11-15T04:02:36.899Z,10.58
2022-11-15T04:06:05.723Z,10.34
2022-11-15T04:09:36.121Z,10.22
2022-11-15T04:13:00.314Z,10.39
2022-11-15T04:16:33.810Z,10.82
2022-11-15T04:20:16.994Z,10.59
2022-11-15T04:27:28.354Z,10.35
2022-11-15T04:30:46.215Z,10.66
2022-11-15T04:34:31.411Z,10.30
2022-11-15T04:37:49.128Z,10.45
2022-11-15T04:41:13.307Z,10.39
2022-11-15T04:44:45.050Z,10.35
2022-11-15T04:48:05.254Z,10.68
2022-11-15T04:51:31.335Z,10.76
2022-11-15T04:55:07.747Z,10.75
2022-11-15T04:58:44.985Z,10.80
2022-11-15T05:03:18.500Z,10.70
2022-11-15T05:06:48.809Z,10.49
2022-11-15T05:10:05.643Z,10.45
2022-11-15T05:13:18.727Z,10.94
2022-11-15T05:16:56.200Z,10.52
2022-11-15T05:20:23.968Z,10.34
2022-11-15T05:23:43.830Z,10.74
2022-11-15T05:27:02.001Z,10.56
2022-11-15T05:37:29.227Z,10.44
2022-11-15T05:40:58.671Z,10.73
2022-11-15T05:58:48.014Z,10.86
2022-11-15T06:02:04.769Z,10.76
2022-11-15T06:06:30.111Z,10.95
2022-11-15T06:09:42.664Z,10.49
2022-11-15T06:13:02.211Z,10.74
2022-11-15T06:16:16.972Z,10.64
2022-11-15T06:19:47.598Z,10.69
2022-11-15T06:22:57.149Z,10.51
2022-11-15T06:27:55.938Z,10.67
2022-11-15T06:31:04.508Z,10.27
2022-11-15T06:33:55.351Z,10.52
2022-11-15T06:36:47.320Z,10.39
2022-11-15T06:39:37.002Z,10.30
2022-11-15T06:42:28.889Z,10.52
2022-11-15T06:45:25.080Z,10.34
2022-11-15T06:48:17.387Z,10.57
2022-11-15T06:51:10.824Z,10.57
2022-11-15T06:54:03.445Z,10.74
2022-11-15T06:56:54.782Z,10.89
2022-11-15T06:59:44.224Z,10.49
2022-11-15T07:02:35.433Z,10.43
2022-11-15T07:05:29.330Z,10.74
2022-11-15T07:08:21.006Z,10.77
2022-11-15T07:11:11.245Z,10.59
2022-11-15T07:14:04.166Z,10.65
2022-11-15T07:17:05.548Z,10.94
2022-11-15T07:19:59.890Z,10.56
2022-11-15T07:22:49.674Z,10.27
2022-11-15T07:25:40.813Z,10.45
2022-11-15T07:28:35.409Z,10.88
2022-11-15T07:31:33.033Z,10.59
2022-11-15T07:34:22.997Z,10.63
2022-11-15T07:37:13.386Z,10.59
2022-11-15T07:40:05.852Z,10.81
2022-11-15T07:43:03.540Z,10.91
2022-11-15T07:45:59.123Z,10.74
2022-11-15T07:48:48.758Z,10.72
2022-11-15T07:51:36.802Z,10.51
2022-11-15T07:54:32.992Z,11.13
2022-11-15T07:57:24.666Z,10.87
2022-11-15T08:00:13.718Z,10.94
2022-11-15T08:03:13.939Z,11.33
2022-11-15T08:06:03.409Z,10.92
2022-11-15T08:08:57.501Z,11.13
2022-11-15T08:11:48.882Z,10.69
2022-11-15T08:14:40.631Z,10.88
2022-11-15T08:17:35.255Z,10.91
2022-11-15T08:20:24.302Z,10.74
2022-11-15T08:23:20.103Z,10.81
2022-11-15T08:26:19.969Z,11.21
2022-11-15T08:29:12.192Z,11.05
2022-11-15T08:32:06.587Z,10.81
2022-11-15T08:34:59.829Z,10.88
2022-11-15T08:37:50.060Z,11.09
2022-11-15T08:40:44.567Z,10.95
2022-11-15T08:43:48.286Z,11.19
2022-11-15T08:46:41.245Z,11.26
2022-11-15T08:49:33.770Z,11.05
2022-11-15T08:52:30.532Z,11.27
2022-11-15T08:55:24.851Z,11.13
2022-11-15T08:58:20.367Z,11.05
2022-11-15T09:01:18.645Z,11.35
2022-11-15T09:04:09.040Z,10.82
2022-11-15T09:07:03.996Z,11.18
2022-11-15T09:09:55.848Z,11.04
2022-11-15T09:12:47.223Z,10.81
2022-11-15T09:15:38.364Z,10.88
2022-11-15T09:18:36.454Z,11.07
2022-11-15T09:21:28.702Z,10.73
2022-11-15T09:24:18.922Z,10.76
2022-11-15T09:27:08.251Z,10.62
2022-11-15T09:30:12.055Z,10.54
2022-11-15T09:33:04.621Z,10.60
2022-11-15T09:35:56.081Z,10.71
2022-11-15T09:38:52.893Z,10.65
2022-11-15T09:42:12.284Z,11.13
2022-11-15T09:45:35.447Z,11.10
2022-11-15T09:49:08.274Z,10.75
2022-11-15T09:52:05.030Z,10.93
2022-11-15T09:54:56.533Z,10.94
2022-11-15T09:57:43.455Z,10.88
2022-11-15T10:00:52.307Z,11.05
2022-11-15T10:03:40.944Z,10.89
2022-11-15T10:06:46.976Z,11.04
2022-11-15T10:09:48.219Z,11.00
2022-11-15T10:12:23.123Z,10.89
2022-11-15T10:15:06.895Z,11.17
2022-11-15T10:18:19.155Z,11.07
2022-11-15T10:21:08.471Z,11.30
2022-11-15T10:23:42.922Z,11.08
2022-11-15T10:26:20.590Z,11.31
2022-11-15T10:29:01.272Z,11.16
2022-11-15T10:31:34.991Z,11.23
2022-11-15T10:34:20.093Z,11.32
2022-11-15T10:37:04.855Z,11.59
2022-11-15T10:39:39.312Z,11.24
2022-11-15T10:42:40.592Z,11.59
2022-11-15T10:45:48.824Z,11.34
2022-11-15T10:48:33.034Z,11.09
2022-11-15T10:55:43.555Z,10.97
2022-11-15T10:58:52.331Z,11.19
2022-11-15T11:01:49.065Z,11.17
2022-11-15T11:04:24.626Z,10.84
2022-11-15T11:07:22.701Z,10.85
2022-11-15T11:10:02.169Z,11.23
2022-11-15T11:12:37.879Z,11.29
2022-11-15T11:15:15.183Z,11.54
2022-11-15T11:18:01.432Z,11.50
2022-11-15T11:20:53.497Z,11.48
2022-11-15T11:23:41.683Z,11.53
2022-11-15T11:26:19.096Z,11.68
2022-11-15T11:29:07.025Z,11.53
2022-11-15T11:31:52.529Z,11.43
2022-11-15T11:34:21.888Z,10.98
2022-11-15T11:37:23.894Z,11.41
2022-11-15T11:40:16.472Z,11.26
2022-11-15T11:43:06.895Z,11.16
2022-11-15T11:45:42.265Z,11.31
2022-11-15T11:48:44.945Z,11.46
2022-11-15T11:51:39.723Z,11.35
2022-11-15T11:59:41.446Z,11.26
2022-11-15T12:02:44.509Z,11.54
2022-11-15T12:05:33.315Z,11.27
2022-11-15T12:08:32.807Z,11.33
2022-11-15T12:11:32.434Z,11.56
2022-11-15T12:14:10.855Z,11.10
2022-11-15T12:16:45.856Z,11.37
2022-11-15T12:19:18.850Z,11.37
2022-11-15T12:22:10.113Z,11.47
2022-11-15T12:24:46.870Z,11.23
2022-11-15T12:27:44.839Z,11.27
2022-11-15T12:30:19.470Z,11.17
2022-11-15T12:33:08.095Z,11.21
2022-11-15T12:35:44.787Z,11.02
2022-11-15T12:38:59.767Z,11.20
2022-11-15T12:41:43.056Z,11.40
2022-11-15T12:44:38.516Z,11.32
2022-11-15T12:47:11.029Z,11.26
2022-11-15T12:49:40.491Z,11.15
2022-11-15T12:52:13.110Z,11.53
2022-11-15T12:54:43.773Z,11.29
2022-11-15T12:57:19.753Z,11.44
2022-11-15T13:00:07.750Z,11.26
2022-11-15T13:02:51.520Z,11.25
2022-11-15T13:05:22.458Z,10.84
2022-11-15T13:08:09.350Z,11.50
2022-11-15T13:10:44.738Z,10.96
2022-11-15T13:13:54.230Z,11.46
2022-11-15T13:16:48.215Z,11.02
2022-11-15T13:19:28.260Z,10.97
2022-11-15T13:22:20.665Z,11.41
2022-11-15T13:24:52.366Z,11.17
2022-11-15T13:27:23.544Z,10.96
2022-11-15T13:29:55.156Z,11.43
2022-11-15T13:32:54.935Z,10.94
2022-11-15T13:35:36.563Z,11.44
2022-11-15T13:38:08.333Z,10.74
2022-11-15T13:40:40.857Z,10.87
2022-11-15T13:43:42.100Z,11.37
2022-11-15T13:46:28.589Z,11.33
2022-11-15T13:49:11.258Z,10.80
2022-11-15T13:51:44.946Z,11.51
2022-11-15T13:54:18.706Z,10.77
2022-11-15T13:57:29.108Z,10.99
2022-11-15T14:00:34.932Z,10.87
2022-11-15T14:03:24.337Z,10.86
2022-11-15T14:06:54.438Z,11.12
2022-11-15T14:10:05.042Z,11.24
2022-11-15T14:13:06.154Z,11.34
2022-11-15T14:15:42.929Z,10.96
2022-11-15T14:18:44.639Z,11.42
2022-11-15T14:21:16.540Z,11.03
2022-11-15T14:23:47.405Z,11.02
2022-11-15T14:26:36.462Z,11.08
2022-11-15T14:29:25.970Z,11.40
2022-11-15T14:32:21.670Z,11.09
2022-11-15T14:35:06.228Z,11.00
2022-11-15T14:37:36.752Z,10.82
2022-11-15T14:40:46.629Z,11.04
2022-11-15T14:43:16.611Z,10.82
2022-11-15T14:45:46.843Z,10.93
2022-11-15T14:48:16.479Z,11.07
2022-11-15T14:50:47.276Z,10.85
2022-11-15T14:53:19.102Z,10.84
2022-11-15T14:55:50.309Z,11.17
2022-11-15T14:58:23.268Z,10.80
2022-11-15T15:01:00.987Z,10.94
2022-11-15T15:03:34.014Z,10.80
2022-11-15T15:06:04.625Z,10.77
2022-11-15T15:08:37.605Z,10.84
2022-11-15T15:11:24.785Z,10.87
2022-11-15T15:14:40.529Z,10.78
2022-11-15T15:32:15.773Z,10.58
2022-11-15T15:39:50.493Z,10.89
2022-11-15T15:42:36.669Z,10.59
2022-11-15T15:53:48.694Z,10.22
2022-11-15T15:57:48.929Z,10.48
2022-11-15T16:04:08.803Z,10.41
2022-11-15T16:14:33.459Z,10.57
2022-11-15T16:31:49.236Z,10.45
2022-11-15T16:35:41.166Z,10.62
2022-11-15T16:48:33.289Z,10.61
2022-11-15T16:54:52.191Z,10.25
2022-11-15T16:57:35.262Z,10.42
2022-11-15T17:14:53.061Z,10.41
2022-11-15T17:18:12.524Z,10.49
2022-11-15T17:21:36.296Z,10.42
2022-11-15T17:49:39.433Z,9.66
2022-11-15T17:52:21.492Z,9.70
2022-11-15T17:55:36.847Z,9.58
2022-11-15T18:03:21.169Z,9.39
2022-11-15T18:07:01.149Z,10.03
2022-11-15T18:13:31.923Z,9.63
2022-11-15T18:29:21.174Z,9.98
2022-11-15T18:35:40.918Z,9.36
2022-11-15T18:38:11.527Z,10.08
2022-11-15T18:40:44.099Z,10.49
2022-11-15T18:43:15.282Z,10.19
2022-11-15T18:45:48.267Z,10.28
2022-11-15T18:48:17.054Z,10.61
2022-11-15T18:50:50.435Z,10.79
2022-11-15T18:53:48.020Z,10.57
2022-11-15T18:56:21.951Z,10.83
2022-11-15T18:59:02.575Z,11.10
2022-11-15T19:01:40.313Z,10.58
2022-11-15T19:04:48.750Z,11.04
2022-11-15T19:12:19.534Z,10.30
2022-11-15T19:19:16.539Z,10.57
2022-11-15T19:21:56.727Z,10.53
2022-11-15T19:24:36.494Z,10.60
2022-11-15T19:27:09.193Z,10.60
2022-11-15T19:29:43.840Z,10.05
2022-11-15T19:32:15.617Z,10.73
2022-11-15T19:34:47.762Z,10.58
2022-11-15T19:37:45.311Z,10.63
2022-11-15T19:40:19.042Z,10.65
2022-11-15T19:42:51.451Z,11.03
2022-11-15T19:45:24.684Z,10.77
2022-11-15T19:48:11.638Z,11.34
2022-11-15T19:50:43.126Z,10.67
2022-11-15T19:53:15.997Z,10.53
2022-11-15T19:56:02.669Z,11.21
2022-11-15T19:59:03.710Z,10.71
2022-11-15T20:02:13.497Z,10.62
2022-11-15T20:05:15.552Z,10.00
2022-11-15T20:07:52.140Z,10.12
2022-11-15T20:10:48.834Z,10.46
2022-11-15T20:13:24.478Z,11.12
2022-11-15T20:16:51.443Z,11.31
2022-11-15T20:33:08.734Z,10.58
2022-11-15T20:48:12.605Z,10.61
2022-11-15T20:50:46.821Z,10.14
2022-11-15T20:53:39.366Z,10.47
2022-11-15T20:56:19.508Z,10.65
2022-11-15T20:58:53.153Z,11.18
2022-11-15T21:01:33.127Z,11.40
2022-11-15T21:04:05.018Z,11.23
2022-11-15T21:06:36.499Z,11.67
2022-11-15T21:09:32.026Z,11.17
2022-11-15T21:12:17.037Z,10.49
2022-11-15T21:20:04.627Z,10.43
2022-11-15T21:27:08.674Z,10.53
2022-11-15T21:31:39.980Z,10.80
2022-11-15T21:34:31.280Z,10.85
2022-11-15T21:37:39.602Z,11.40
2022-11-15T21:40:23.510Z,11.34
2022-11-15T21:43:12.133Z,11.50
2022-11-15T21:54:11.255Z,10.66
2022-11-15T21:56:54.886Z,10.51
2022-11-15T22:00:21.350Z,11.38
2022-11-15T22:03:07.011Z,10.88
2022-11-15T22:09:07.937Z,11.11
2022-11-15T22:11:53.171Z,11.40
2022-11-15T22:14:52.515Z,11.82
2022-11-15T22:17:23.042Z,11.41
2022-11-15T22:20:17.059Z,12.36
2022-11-15T22:23:00.317Z,11.98
2022-11-15T22:29:07.329Z,11.73
2022-11-15T22:31:39.063Z,11.92
2022-11-15T22:34:11.493Z,12.13
2022-11-15T22:37:18.389Z,11.86
2022-11-15T22:39:40.767Z,12.17
2022-11-15T22:42:34.959Z,11.90
2022-11-15T22:45:07.771Z,11.66
2022-11-15T22:47:40.555Z,11.89
2022-11-15T22:50:21.315Z,11.84
2022-11-15T22:53:02.814Z,11.99
2022-11-15T22:55:36.717Z,11.83
2022-11-15T23:01:45.358Z,11.99
2022-11-15T23:04:23.406Z,12.35
2022-11-15T23:06:55.356Z,11.70
2022-11-15T23:09:35.716Z,12.01
2022-11-15T23:12:25.243Z,11.94
2022-11-15T23:15:04.810Z,12.12
2022-11-15T23:17:39.970Z,12.53
2022-11-15T23:20:41.467Z,11.98
2022-11-15T23:23:07.094Z,11.80
2022-11-15T23:25:37.187Z,12.35
2022-11-15T23:28:33.563Z,12.46
2022-11-15T23:31:31.530Z,12.53
2022-11-15T23:34:05.359Z,11.88
2022-11-15T23:36:44.432Z,12.34
2022-11-15T23:39:16.554Z,12.35
2022-11-15T23:41:55.552Z,12.31
2022-11-15T23:44:46.996Z,12.45
2022-11-15T23:47:32.996Z,12.83
2022-11-15T23:50:11.140Z,12.49
2022-11-15T23:53:11.110Z,11.91
2022-11-15T23:56:06.281Z,12.36
2022-11-15T23:58:39.672Z,12.50
